createdAt,value
2017-12-05T00:09:51.000Z,41.577
2017-12-05T00:19:52.000Z,41.833
2017-12-05T00:29:52.000Z,42.133
2017-12-05T00:39:52.000Z,42.196
2017-12-05T00:49:52.000Z,42.162
2017-12-05T00:59:52.000Z,42.073
2017-12-05T01:09:52.000Z,41.875
2017-12-05T01:19:52.000Z,42.23
2017-12-05T01:29:52.000Z,42.239
2017-12-05T01:39:52.000Z,42.092
2017-12-05T01:49:52.000Z,42.466
2017-12-05T01:59:52.000Z,42.344
2017-12-05T02:09:52.000Z,42.471
2017-12-05T02:19:52.000Z,42.381
2017-12-05T02:29:52.000Z,42.549
2017-12-05T02:39:52.000Z,42.622
2017-12-05T02:49:52.000Z,42.608
2017-12-05T02:59:52.000Z,42.636
2017-12-05T03:09:52.000Z,42.72
2017-12-05T03:19:52.000Z,42.813
2017-12-05T03:29:52.000Z,42.713
2017-12-05T03:39:52.000Z,42.763
2017-12-05T03:49:52.000Z,42.793
2017-12-05T03:59:52.000Z,42.8
2017-12-05T04:09:52.000Z,42.905
2017-12-05T04:19:52.000Z,42.933
2017-12-05T04:29:52.000Z,42.929
2017-12-05T04:39:53.000Z,42.969
2017-12-05T04:49:52.000Z,42.988
2017-12-05T04:59:52.000Z,42.868
2017-12-05T05:09:52.000Z,42.908
2017-12-05T05:19:52.000Z,43.098
2017-12-05T05:29:52.000Z,43.224
2017-12-05T05:39:52.000Z,43.299
2017-12-05T05:49:52.000Z,43.254
2017-12-05T05:59:52.000Z,43.199
2017-12-05T06:09:52.000Z,42.612
2017-12-05T06:19:52.000Z,41.732
2017-12-05T06:29:52.000Z,41.563
2017-12-05T06:39:52.000Z,41.228
2017-12-05T06:49:52.000Z,41.27
2017-12-05T06:59:52.000Z,41.454
2017-12-05T07:09:52.000Z,41.422
2017-12-05T07:19:52.000Z,41.348
2017-12-05T07:29:52.000Z,41.207
2017-12-05T07:39:52.000Z,41.065
2017-12-05T07:49:52.000Z,42.868
2017-12-05T07:59:52.000Z,42.943
2017-12-05T08:09:53.000Z,42.845
2017-12-05T08:29:53.000Z,42.489
2017-12-05T08:49:53.000Z,42.132
2017-12-05T08:59:53.000Z,42.165
2017-12-05T09:09:53.000Z,41.906
2017-12-05T09:19:53.000Z,42.091
2017-12-05T09:29:53.000Z,41.518
2017-12-05T09:39:53.000Z,41.561
2017-12-05T09:49:53.000Z,41.325
2017-12-05T09:59:53.000Z,41.487
2017-12-05T10:09:53.000Z,41.046
2017-12-05T10:19:53.000Z,41.142
2017-12-05T10:29:53.000Z,41.1
2017-12-05T10:39:53.000Z,40.885
2017-12-05T10:49:53.000Z,40.292
2017-12-05T10:59:53.000Z,40.648
2017-12-05T11:09:53.000Z,40.464
2017-12-05T11:19:53.000Z,40.227
2017-12-05T11:29:53.000Z,40.139
2017-12-05T11:39:53.000Z,40.009
2017-12-05T11:49:53.000Z,39.847
2017-12-05T11:59:53.000Z,39.729
2017-12-05T12:09:53.000Z,39.834
2017-12-05T12:19:53.000Z,39.554
2017-12-05T12:29:53.000Z,39.564
2017-12-05T12:39:53.000Z,39.65
2017-12-05T12:49:53.000Z,39.249
2017-12-05T12:59:53.000Z,39.475
2017-12-05T13:09:53.000Z,39.411
2017-12-05T13:19:53.000Z,39.323
2017-12-05T13:29:53.000Z,39.215
2017-12-05T13:39:53.000Z,38.977
2017-12-05T13:49:53.000Z,38.976
2017-12-05T13:59:53.000Z,38.899
2017-12-05T14:09:53.000Z,38.974
2017-12-05T14:19:53.000Z,38.705
2017-12-05T14:29:53.000Z,38.952
2017-12-05T14:39:53.000Z,38.866
2017-12-05T14:49:54.000Z,38.606
2017-12-05T14:59:53.000Z,38.724
2017-12-05T15:09:54.000Z,38.658
2017-12-05T15:19:53.000Z,38.604
2017-12-05T15:29:53.000Z,38.506
2017-12-05T15:39:53.000Z,38.387
2017-12-05T15:49:53.000Z,38.409
2017-12-05T16:09:53.000Z,39.275
2017-12-05T16:19:53.000Z,39.191
2017-12-05T16:29:53.000Z,39.027
2017-12-05T16:39:53.000Z,39.021
2017-12-05T16:49:54.000Z,38.9
2017-12-05T16:59:54.000Z,38.568
2017-12-05T17:09:54.000Z,38.539
2017-12-05T17:19:54.000Z,38.7
2017-12-05T17:29:54.000Z,38.568
2017-12-05T17:39:54.000Z,38.448
2017-12-05T17:49:54.000Z,38.381
2017-12-05T17:59:54.000Z,38.487
2017-12-05T18:09:54.000Z,38.368
2017-12-05T18:19:54.000Z,38.452
2017-12-05T18:29:54.000Z,38.364
2017-12-05T18:39:54.000Z,38.211
2017-12-05T18:49:54.000Z,38.277
2017-12-05T18:59:54.000Z,38.308
2017-12-05T19:09:54.000Z,38.08
2017-12-05T19:19:54.000Z,38.1
2017-12-05T19:29:54.000Z,38.024
2017-12-05T19:39:54.000Z,38.131
2017-12-05T19:49:54.000Z,38.163
2017-12-05T19:59:54.000Z,37.792
2017-12-05T20:09:54.000Z,37.681
2017-12-05T20:19:54.000Z,39.558
2017-12-05T20:29:54.000Z,40.796
2017-12-05T20:39:54.000Z,40.728
2017-12-05T20:49:54.000Z,40.831
2017-12-05T20:59:54.000Z,40.613
2017-12-05T21:09:54.000Z,40.858
2017-12-05T21:19:54.000Z,40.927
2017-12-05T21:29:54.000Z,40.703
2017-12-05T21:39:54.000Z,40.794
2017-12-05T21:49:54.000Z,40.545
2017-12-05T21:59:54.000Z,40.193
2017-12-05T22:09:54.000Z,40.527
2017-12-05T22:19:54.000Z,40.396
2017-12-05T22:29:54.000Z,40.143
2017-12-05T22:39:54.000Z,40.033
2017-12-05T22:49:54.000Z,39.877
2017-12-05T22:59:54.000Z,40.045
2017-12-05T23:09:54.000Z,39.837
2017-12-05T23:19:54.000Z,39.823
2017-12-05T23:29:54.000Z,39.7
2017-12-05T23:39:54.000Z,39.912
2017-12-05T23:49:54.000Z,39.929
2017-12-05T23:59:54.000Z,39.991
